Aérodrome :
LOGIN :

S'inscrire | Disclaimer

   EN    FR    IT 

 










Légende :    VFR   VFR Marginal   IFR   IFR Intensif   IFR Très Intensif
Visi : 
Plafond : 
>= 8 km
>= 3000ft
5 à 8 km
1000 à 3000 ft
1500m à 5 km
500 à 1000 ft
800 à 1500m
200 à 500 ft
< 800m
< 200 ft
Symboles :   Orages  Brouillard  Fortes neiges  Fortes précipitations  Vent > 20 kt
SIGMETs :   Divers  Orages  Givrage  Turbulence  Onde Orograph.  Cendres Volcan.






- Altitude de l'aérodrome : 330 ft
- Code IATA : LVA


LFOV - Laval-Entrammes

DERNIER METAR :
  • 220030Z AUTO 00000KT 1400 1000 BR NSC 06/06 Q1023

METARs EXPIRÉS :
  • 220000Z AUTO 00000KT 3400 BR NSC 06/06 Q1023
  • 212330Z AUTO 36002KT 3900 BR NSC 06/06 Q1023
  • 212300Z AUTO 35003KT 5000 BR NSC 07/07 Q1023
  • 212230Z AUTO 35003KT 7000 NSC 07/07 Q1023
  • 212200Z AUTO 34003KT 9000 NSC 08/08 Q1023

TAF N/A



MET'MAP, la Météo Aéronautique d'un coup d'oeil ! - Copyright ORBIFLY Décembre 2007 - Disclaimer

ORBIFLY MET'MAP TEAM :

Programmation & Développement : Alexandra Zaïnal
Conception & Développement : Baudouin d'Aumeries
Co-Programmation & Développement : Marc-Olivier Méhu
Soutien technique & logistique : Manuel Goepfert

Contact : metmap@orbifly.com




SOURCES & CREDITS :

   NOAA